Date,TemperatureHighF,TemperatureAvgF,TemperatureLowF,DewpointHighF,DewpointAvgF,DewpointLowF,HumidityHigh,HumidityAvg,HumidityLow,PressureMaxIn,PressureMinIn,WindSpeedMaxMPH,WindSpeedAvgMPH,GustSpeedMaxMPH,PrecipitationSumIn
2013-3-1,56.5,48.9,41.7,36.1,32.7,29.1,68,54,40,29.83,29.65,0,0,0,0.00
2013-3-2,56.7,43.0,31.6,50.9,29.6,25.7,100,61,39,29.83,29.71,0,0,0,0.00
2013-3-3,50.0,38.1,28.0,30.7,23.2,18.6,100,56,38,29.85,29.77,0,0,0,0.00
2013-3-4,51.6,37.2,27.3,24.9,18.9,14.2,62,48,31,30.03,29.85,0,0,0,0.00
2013-3-5,62.1,47.6,27.9,58.4,34.3,17.9,100,61,46,30.03,29.59,0,0,0,0.00
2013-3-6,59.0,48.0,40.6,58.4,38.0,24.5,100,70,42,29.80,29.44,0,0,0,0.00
2013-3-7,57.0,45.9,38.3,51.6,29.0,25.2,100,53,37,30.09,29.80,0,0,0,0.00
2013-3-8,56.5,45.1,36.7,50.2,26.0,22.6,100,48,36,30.12,30.00,0,0,0,0.00
2013-3-9,62.2,46.8,32.5,41.5,29.0,24.0,100,51,35,30.21,30.09,0,0,0,0.00
2013-3-10,64.8,45.5,27.3,43.5,33.8,22.0,100,67,37,30.24,30.15,0,0,0,0.00
2013-3-11,72.1,57.1,39.2,66.4,47.9,35.4,100,74,47,30.18,29.91,0,0,0,0.00
2013-3-12,64.9,60.8,55.2,64.4,58.4,53.8,98,92,73,29.94,29.71,0,0,0,0.00
2013-3-13,63.0,54.1,45.9,56.1,39.8,29.0,98,61,35,29.97,29.80,0,0,0,0.00
2013-3-14,55.4,42.9,34.0,29.2,22.4,16.8,64,45,33,30.12,29.97,0,0,0,0.00
2013-3-15,57.7,45.3,28.2,52.6,28.4,20.0,100,53,32,30.12,29.88,0,0,0,0.00
2013-3-16,68.4,59.5,53.6,51.6,48.3,40.7,78,67,53,29.91,29.68,0,0,0,0.00
2013-3-17,62.2,53.5,46.9,52.0,47.4,42.0,98,80,65,30.09,29.80,0,0,0,0.00
2013-3-18,70.3,55.0,47.8,58.0,49.9,44.0,100,84,61,30.06,29.83,0,0,0,0.00
2013-3-19,71.1,57.9,45.5,59.1,52.0,42.6,100,83,41,29.91,29.68,0,0,0,0.00
2013-3-20,60.4,49.8,38.3,55.8,25.3,-10.5,100,41,6,30.03,29.74,0,0,0,0.00
2013-3-21,55.2,43.9,33.1,47.1,27.3,14.7,100,54,39,29.85,29.62,0,0,0,0.00
2013-3-22,51.6,40.1,27.1,29.2,19.9,11.2,57,44,31,30.00,29.85,0,0,0,0.00
2013-3-23,62.6,46.7,34.2,40.8,29.8,22.8,100,53,38,29.97,29.85,0,0,0,0.00
2013-3-24,56.7,46.8,36.5,56.1,44.6,30.6,98,92,62,29.88,29.35,0,0,0,0.00
2013-3-25,52.5,44.6,38.1,48.6,37.9,25.3,98,80,48,29.74,29.44,0,0,0,0.00
2013-3-26,53.2,42.4,33.6,30.1,26.3,22.5,67,53,41,29.97,29.74,0,0,0,0.00
2013-3-27,57.9,44.0,33.3,31.6,27.0,21.8,75,53,32,30.12,29.97,0,0,0,0.00
2013-3-28,59.4,43.0,28.2,39.9,24.5,18.8,100,50,30,30.15,30.06,0,0,0,0.00
2013-3-29,60.8,45.4,30.0,56.3,29.3,22.4,100,55,35,30.24,30.12,0,0,0,0.00
2013-3-30,65.8,51.4,39.9,62.1,38.3,33.0,100,64,39,30.15,30.06,0,0,0,0.00
2013-3-31,43.5,42.8,42.1,38.9,38.5,37.0,86,85,80,30.06,30.03,0,0,0,0.00